| time (UTC) | temp C | wind direction | speed KPH | gust KPH | rain 1hr cm | rain 24hr cm | rain mn cm | humidity % | barometer mb |
| 20260906031544 | 22 | 0 | 0.0 | 0.0 | 0.00 | 0.61 | 0.61 | 90 | 1016.0 |
| 20260906030035 | 22 | 193 | 1.6 | 4.8 | 0.00 | 0.61 | 0.61 | 90 | 1016.0 |
| 20260906024535 | 22 | 0 | 0.0 | 0.0 | 0.00 | 0.61 | 0.61 | 90 | 1015.9 |
| 20260906023037 | 22 | 0 | 0.0 | 0.0 | 0.00 | 0.61 | 0.61 | 90 | 1015.8 |
| 20260906021536 | 22 | 0 | 0.0 | 0.0 | 0.00 | 0.61 | 0.61 | 91 | 1015.8 |
| 20260906020039 | 22 | 0 | 0.0 | 0.0 | 0.00 | 0.61 | 0.61 | 91 | 1015.6 |
| 20260906014537 | 22 | 0 | 0.0 | 0.0 | 0.00 | 0.61 | 0.61 | 91 | 1015.4 |
| 20260906013034 | 22 | 0 | 0.0 | 0.0 | 0.00 | 0.61 | 0.61 | 91 | 1015.4 |
| 20260906011539 | 22 | 0 | 0.0 | 0.0 | 0.00 | 0.61 | 0.61 | 91 | 1015.5 |
| 20260906010039 | 22 | 0 | 0.0 | 0.0 | 0.00 | 0.61 | 0.61 | 90 | 1015.1 |
| 20260906004537 | 23 | 0 | 0.0 | 0.0 | 0.00 | 0.61 | 0.61 | 90 | 1015.1 |
| 20260906003036 | 23 | 0 | 0.0 | 0.0 | 0.00 | 0.61 | 0.61 | 89 | 1015.0 |
| 20260906001535 | 23 | 0 | 0.0 | 0.0 | 0.00 | 0.61 | 0.61 | 89 | 1014.8 |
| 20260906000034 | 24 | 0 | 0.0 | 0.0 | 0.00 | 0.61 | 0.61 | 88 | 1014.7 |
| 20260905234534 | 25 | 0 | 0.0 | 0.0 | 0.00 | 0.61 | 0.61 | 87 | 1014.4 |
| 20260905233042 | 26 | 0 | 0.0 | 0.0 | 0.00 | 0.61 | 0.61 | 85 | 1014.4 |
| 20260905231536 | 26 | 0 | 0.0 | 0.0 | 0.00 | 0.61 | 0.61 | 84 | 1014.4 |
| 20260905230045 | 26 | 0 | 0.0 | 0.0 | 0.00 | 0.61 | 0.61 | 84 | 1014.3 |
| 20260905224549 | 26 | 0 | 0.0 | 0.0 | 0.00 | 0.61 | 0.61 | 82 | 1014.3 |
| 20260905223035 | 26 | 0 | 0.0 | 0.0 | 0.00 | 0.61 | 0.61 | 80 | 1014.3 |
| 20260905221547 | 26 | 0 | 0.0 | 1.6 | 0.00 | 0.61 | 0.61 | 78 | 1014.1 |
| 20260905220040 | 26 | 0 | 0.0 | 0.0 | 0.00 | 0.61 | 0.61 | 78 | 1014.2 |
| 20260905214538 | 26 | 0 | 0.0 | 0.0 | 0.00 | 0.61 | 0.61 | 79 | 1014.4 |
| 20260905213035 | 25 | 0 | 0.0 | 0.0 | 0.00 | 0.61 | 0.61 | 80 | 1014.7 |
| 20260905211534 | 24 | 0 | 0.0 | 0.0 | 0.00 | 0.61 | 0.61 | 83 | 1014.8 |
| 20260905210035 | 23 | 0 | 0.0 | 0.0 | 0.00 | 0.61 | 0.61 | 87 | 1014.8 |
| 20260905204533 | 23 | 0 | 0.0 | 0.0 | 0.00 | 0.61 | 0.61 | 90 | 1015.1 |
| 20260905203037 | 23 | 0 | 0.0 | 1.6 | 0.00 | 0.61 | 0.61 | 91 | 1015.3 |
| 20260905201542 | 22 | 0 | 0.0 | 0.0 | 0.00 | 0.61 | 0.61 | 91 | 1015.5 |
| 20260905200047 | 22 | 0 | 0.0 | 6.4 | 0.00 | 0.61 | 0.61 | 92 | 1015.5 |
| 20260905194534 | 22 | 90 | 0.0 | 3.2 | 0.00 | 0.61 | 0.61 | 91 | 1015.5 |
| 20260905193033 | 22 | 0 | 0.0 | 8.0 | 0.00 | 0.61 | 0.61 | 89 | 1015.7 |
| 20260905191536 | 22 | 0 | 4.8 | 17.7 | 0.23 | 0.61 | 0.61 | 89 | 1015.6 |
| 20260905190035 | 22 | 121 | 3.2 | 14.5 | 0.61 | 0.61 | 0.61 | 88 | 1015.9 |
| 20260905184536 | 22 | 140 | 4.8 | 17.7 | 0.61 | 0.61 | 0.61 | 87 | 1015.8 |
| 20260905183033 | 23 | 192 | 8.0 | 20.9 | 0.61 | 0.61 | 0.61 | 83 | 1015.6 |
| 20260905181559 | 27 | 159 | 3.2 | 22.5 | 0.33 | 0.33 | 0.33 | 75 | 1016.4 |
| 20260905180036 | 32 | 207 | 1.6 | 9.7 | 0.00 | 0.00 | 0.00 | 61 | 1015.6 |
| 20260905174547 | 33 | 211 | 3.2 | 11.3 | 0.00 | 0.00 | 0.00 | 57 | 1015.8 |
| 20260905173035 | 33 | 174 | 4.8 | 11.3 | 0.00 | 0.00 | 0.00 | 60 | 1016.3 |
| 20260905171541 | 32 | 216 | 1.6 | 12.9 | 0.00 | 0.00 | 0.00 | 59 | 1016.5 |
| 20260905170035 | 32 | 175 | 4.8 | 12.9 | 0.00 | 0.00 | 0.00 | 59 | 1016.5 |
| 20260905164537 | 32 | 263 | 1.6 | 12.9 | 0.00 | 0.00 | 0.00 | 61 | 1016.6 |
| 20260905163035 | 32 | 209 | 6.4 | 17.7 | 0.00 | 0.00 | 0.00 | 63 | 1016.9 |
| 20260905161534 | 32 | 0 | 1.6 | 11.3 | 0.00 | 0.00 | 0.00 | 63 | 1017.2 |
| 20260905160105 | 31 | 192 | 1.6 | 9.7 | 0.00 | 0.00 | 0.00 | 66 | 1017.3 |
| 20260905154535 | 31 | 0 | 0.0 | 4.8 | 0.00 | 0.00 | 0.00 | 69 | 1017.3 |
| 20260905153033 | 31 | 0 | 0.0 | 1.6 | 0.00 | 0.00 | 0.00 | 68 | 1017.3 |
| 20260905151537 | 31 | 0 | 0.0 | 1.6 | 0.00 | 0.00 | 0.00 | 70 | 1017.1 |
| 20260905150040 | 30 | 0 | 0.0 | 1.6 | 0.00 | 0.00 | 0.00 | 70 | 1017.2 |
| 20260905144534 | 30 | 0 | 0.0 | 0.0 | 0.00 | 0.00 | 0.00 | 74 | 1017.0 |
| 20260905143036 | 30 | 0 | 0.0 | 0.0 | 0.00 | 0.00 | 0.00 | 75 | 1017.1 |
| 20260905141540 | 29 | 0 | 0.0 | 0.0 | 0.00 | 0.00 | 0.00 | 76 | 1017.0 |
| 20260905140038 | 28 | 0 | 0.0 | 0.0 | 0.00 | 0.00 | 0.00 | 77 | 1017.0 |
| 20260905134536 | 28 | 0 | 0.0 | 0.0 | 0.00 | 0.00 | 0.00 | 77 | 1017.1 |
| 20260905133037 | 27 | 0 | 0.0 | 0.0 | 0.00 | 0.00 | 0.00 | 79 | 1017.1 |
| 20260905131534 | 27 | 0 | 0.0 | 0.0 | 0.00 | 0.00 | 0.00 | 79 | 1017.2 |
| 20260905130035 | 26 | 0 | 0.0 | 0.0 | 0.00 | 0.00 | 0.00 | 82 | 1017.4 |
| 20260905124539 | 25 | 0 | 0.0 | 0.0 | 0.00 | 0.00 | 0.00 | 84 | 1017.4 |
| 20260905123037 | 24 | 0 | 0.0 | 0.0 | 0.00 | 0.00 | 0.00 | 89 | 1017.3 |
| 20260905121535 | 23 | 0 | 0.0 | 0.0 | 0.00 | 0.00 | 0.00 | 91 | 1017.2 |
| 20260905120034 | 22 | 0 | 0.0 | 0.0 | 0.00 | 0.00 | 0.00 | 93 | 1017.1 |
| 20260905114535 | 22 | 0 | 0.0 | 0.0 | 0.00 | 0.00 | 0.00 | 93 | 1017.0 |
| 20260905113035 | 22 | 0 | 0.0 | 0.0 | 0.00 | 0.00 | 0.00 | 93 | 1016.8 |
| 20260905111536 | 22 | 0 | 0.0 | 0.0 | 0.00 | 0.00 | 0.00 | 93 | 1016.6 |
| 20260905110034 | 22 | 0 | 0.0 | 0.0 | 0.00 | 0.00 | 0.00 | 93 | 1016.4 |
| 20260905104537 | 22 | 0 | 0.0 | 0.0 | 0.00 | 0.00 | 0.00 | 93 | 1016.3 |
| 20260905103044 | 22 | 0 | 0.0 | 0.0 | 0.00 | 0.00 | 0.00 | 93 | 1016.1 |
| 20260905101535 | 22 | 0 | 0.0 | 0.0 | 0.00 | 0.00 | 0.00 | 94 | 1016.1 |
| 20260905100034 | 22 | 0 | 0.0 | 0.0 | 0.00 | 0.00 | 0.00 | 94 | 1015.9 |
| 20260905094537 | 22 | 0 | 0.0 | 0.0 | 0.00 | 0.00 | 0.00 | 94 | 1015.9 |
| 20260905093034 | 22 | 0 | 0.0 | 0.0 | 0.00 | 0.00 | 0.00 | 94 | 1016.0 |
| 20260905091609 | 22 | 0 | 0.0 | 0.0 | 0.00 | 0.00 | 0.00 | 94 | 1016.0 |
| 20260905090033 | 22 | 0 | 0.0 | 0.0 | 0.00 | 0.00 | 0.00 | 94 | 1015.9 |
| 20260905084534 | 22 | 0 | 0.0 | 0.0 | 0.00 | 0.00 | 0.00 | 93 | 1016.2 |
| 20260905083035 | 22 | 0 | 0.0 | 0.0 | 0.00 | 0.00 | 0.00 | 94 | 1016.3 |
| 20260905081536 | 22 | 0 | 0.0 | 0.0 | 0.00 | 0.00 | 0.00 | 93 | 1016.5 |
| 20260905080042 | 22 | 0 | 0.0 | 0.0 | 0.00 | 0.00 | 0.00 | 93 | 1016.6 |
| 20260905074539 | 23 | 0 | 0.0 | 0.0 | 0.00 | 0.00 | 0.00 | 92 | 1016.7 |
| 20260905073035 | 23 | 0 | 0.0 | 0.0 | 0.00 | 0.00 | 0.00 | 92 | 1016.8 |
| 20260905071535 | 23 | 0 | 0.0 | 0.0 | 0.00 | 0.00 | 0.00 | 91 | 1016.9 |
| 20260905070037 | 23 | 0 | 0.0 | 0.0 | 0.00 | 0.00 | 0.00 | 91 | 1017.1 |
| 20260905064538 | 23 | 0 | 0.0 | 0.0 | 0.00 | 0.00 | 0.00 | 90 | 1017.3 |
| 20260905063033 | 23 | 0 | 0.0 | 0.0 | 0.00 | 0.00 | 0.00 | 89 | 1017.4 |
| 20260905061552 | 23 | 0 | 0.0 | 0.0 | 0.00 | 0.00 | 0.00 | 89 | 1017.5 |
| 20260905060035 | 23 | 0 | 0.0 | 0.0 | 0.00 | 0.00 | 0.00 | 88 | 1017.6 |
| 20260905054534 | 24 | 0 | 0.0 | 0.0 | 0.00 | 0.00 | 0.00 | 86 | 1017.8 |
| 20260905053035 | 25 | 0 | 0.0 | 8.0 | 0.00 | 0.00 | 0.00 | 84 | 1017.8 |
| 20260905051539 | 25 | 0 | 0.0 | 0.0 | 0.00 | 0.00 | 0.00 | 83 | 1017.8 |
| 20260905050036 | 25 | 0 | 0.0 | 1.6 | 0.00 | 0.00 | 0.00 | 81 | 1017.6 |
| 20260905044538 | 26 | 0 | 0.0 | 1.6 | 0.00 | 0.00 | 0.00 | 80 | 1017.7 |
| 20260905043032 | 26 | 0 | 0.0 | 0.0 | 0.00 | 0.00 | 0.00 | 79 | 1017.8 |
| 20260905041534 | 26 | 0 | 0.0 | 0.0 | 0.00 | 0.00 | 0.00 | 78 | 1017.6 |
| 20260905040037 | 26 | 0 | 0.0 | 6.4 | 0.00 | 0.00 | 0.00 | 77 | 1017.8 |
| 20260905034543 | 27 | 0 | 0.0 | 3.2 | 0.00 | 0.00 | 0.00 | 76 | 1017.7 |
| 20260905033036 | 27 | 0 | 0.0 | 8.0 | 0.00 | 0.00 | 0.00 | 77 | 1017.6 |